Time;durP1;ratioP1;P1;durP2;ratioP2;P2;SDS_P1;SDS_P2;PMS_P1;PMS_P2;Temp;Humidity;BMP_temperature;BMP_pressure;BME280_temperature;BME280_humidity;BME280_pressure;Samples;Min_cycle;Max_cycle;Signal;HPM_P1;HPM_P2
2022/02/19 00:00:09;;;;;;;0.45;0.10;;;20.80;44.70;;;;;;5066265;28;20041;-46
2022/02/19 00:02:40;;;;;;;2.95;0.85;;;20.80;44.70;;;;;;5064830;28;20048;-51
2022/02/19 00:05:09;;;;;;;0.85;0.13;;;20.70;44.60;;;;;;5064855;28;20049;-52
2022/02/19 00:07:36;;;;;;;0.63;0.30;;;20.70;44.50;;;;;;5064463;28;20082;-48
2022/02/19 00:10:04;;;;;;;0.90;0.10;;;20.70;44.60;;;;;;5065193;28;20048;-47
2022/02/19 00:12:33;;;;;;;0.65;0.10;;;20.70;44.50;;;;;;5066777;28;20121;-46
2022/02/19 00:15:00;;;;;;;0.80;0.10;;;20.70;44.40;;;;;;5064753;28;20048;-47
2022/02/19 00:17:28;;;;;;;1.65;0.38;;;20.70;44.40;;;;;;5064670;28;20076;-50
2022/02/19 00:19:55;;;;;;;2.63;0.30;;;20.70;44.40;;;;;;5064852;28;20040;-48
2022/02/19 00:22:23;;;;;;;1.73;0.40;;;20.60;44.30;;;;;;5064410;28;20213;-46
2022/02/19 00:24:50;;;;;;;1.05;0.40;;;20.60;44.30;;;;;;5064987;28;20125;-48
2022/02/19 00:27:17;;;;;;;1.27;0.10;;;20.60;44.80;;;;;;5064617;28;20063;-51
2022/02/19 00:29:45;;;;;;;0.63;0.20;;;20.60;44.10;;;;;;5064686;28;20044;-47
2022/02/19 00:32:12;;;;;;;0.57;0.10;;;20.60;44.00;;;;;;5064901;28;20048;-50
2022/02/19 00:34:40;;;;;;;2.47;0.10;;;20.60;44.20;;;;;;5064938;28;20119;-48
2022/02/19 00:37:08;;;;;;;1.23;0.30;;;20.60;44.10;;;;;;5064962;28;20040;-47
2022/02/19 00:39:35;;;;;;;1.80;0.35;;;20.60;44.10;;;;;;5066697;28;20421;-52
2022/02/19 00:42:05;;;;;;;2.33;0.20;;;20.60;44.10;;;;;;5065409;28;20119;-49
2022/02/19 00:44:33;;;;;;;0.20;0.10;;;20.60;44.10;;;;;;5068071;28;20485;-46
2022/02/19 00:47:02;;;;;;;1.25;0.10;;;20.50;44.60;;;;;;5069065;28;20532;-53
2022/02/19 00:49:29;;;;;;;0.88;0.10;;;20.50;43.90;;;;;;5069019;28;20040;-48
2022/02/19 00:51:57;;;;;;;1.67;0.10;;;20.50;43.80;;;;;;5030537;28;20067;-50
2022/02/19 00:54:24;;;;;;;1.08;0.30;;;20.50;43.90;;;;;;5052130;28;20071;-49
2022/02/19 00:56:51;;;;;;;3.13;0.20;;;20.50;43.90;;;;;;5050348;28;20040;-49
2022/02/19 00:59:18;;;;;;;0.93;0.20;;;20.50;43.90;;;;;;5068261;28;20163;-53
2022/02/19 01:01:47;;;;;;;1.95;0.10;;;20.40;43.80;;;;;;5067722;28;20092;-45
2022/02/19 01:04:30;;;;;;;0.80;0.08;;;20.40;43.80;;;;;;5050433;28;20064;-47
2022/02/19 01:06:57;;;;;;;3.13;0.10;;;20.40;43.80;;;;;;5050157;28;20054;-52
2022/02/19 01:09:26;;;;;;;0.80;0.30;;;20.40;43.80;;;;;;5070184;28;20413;-51
2022/02/19 01:11:54;;;;;;;0.70;0.10;;;20.40;43.70;;;;;;5068188;28;20040;-51
2022/02/19 01:14:21;;;;;;;1.70;0.30;;;20.40;43.70;;;;;;5050168;28;20079;-52
2022/02/19 01:16:48;;;;;;;0.73;0.10;;;20.40;43.70;;;;;;5068056;28;20067;-48
2022/02/19 01:19:15;;;;;;;0.68;0.10;;;20.40;43.70;;;;;;5049747;28;20404;-49
2022/02/19 01:21:44;;;;;;;0.10;0.00;;;20.40;43.60;;;;;;5068927;28;20087;-50
2022/02/19 01:24:11;;;;;;;0.30;0.30;;;20.40;43.50;;;;;;5067611;28;20102;-52
2022/02/19 01:26:38;;;;;;;0.57;0.43;;;20.40;43.70;;;;;;5049880;28;20584;-47
2022/02/19 01:29:06;;;;;;;1.27;0.40;;;20.40;43.60;;;;;;5067998;28;20044;-52
2022/02/19 01:31:34;;;;;;;1.42;0.30;;;20.40;43.60;;;;;;5049636;28;20596;-53
2022/02/19 01:34:02;;;;;;;2.05;0.10;;;20.30;43.50;;;;;;5049911;28;20059;-50
2022/02/19 01:36:31;;;;;;;1.10;0.20;;;20.30;43.70;;;;;;5051628;28;20045;-48
2022/02/19 01:38:59;;;;;;;3.20;0.10;;;20.30;43.50;;;;;;5049788;28;20074;-50
2022/02/19 01:41:26;;;;;;;3.30;0.10;;;20.30;43.50;;;;;;5049875;28;20124;-48
2022/02/19 01:43:54;;;;;;;1.42;0.20;;;20.30;43.50;;;;;;5049821;28;20037;-51
2022/02/19 01:46:21;;;;;;;0.60;0.00;;;20.30;43.50;;;;;;5049854;28;20509;-47
2022/02/19 01:48:49;;;;;;;1.52;0.13;;;20.30;43.40;;;;;;5049344;28;20040;-48
2022/02/19 01:51:18;;;;;;;0.73;0.10;;;20.30;43.40;;;;;;5062012;28;20079;-49
2022/02/19 01:53:45;;;;;;;1.10;0.30;;;20.30;43.40;;;;;;5067824;28;20036;-45
2022/02/19 01:56:20;;;;;;;0.22;0.00;;;20.30;43.40;;;;;;5048359;28;20048;-48
2022/02/19 01:59:06;;;;;;;2.90;0.57;;;20.30;43.30;;;;;;5067463;28;20111;-52
2022/02/19 02:01:53;;;;;;;3.17;0.32;;;20.30;43.30;;;;;;5060977;28;20060;-52
2022/02/19 02:04:33;;;;;;;2.47;0.10;;;20.30;43.40;;;;;;5049207;28;20048;-52
2022/02/19 02:07:03;;;;;;;0.70;0.10;;;20.20;43.40;;;;;;5049664;28;20040;-50
2022/02/19 02:09:31;;;;;;;0.40;0.40;;;20.20;43.30;;;;;;5068966;28;20053;-47
2022/02/19 02:12:04;;;;;;;2.70;0.10;;;20.30;43.40;;;;;;5048043;28;20049;-48
2022/02/19 02:14:31;;;;;;;0.52;0.40;;;20.20;43.20;;;;;;5048833;28;20151;-47
2022/02/19 02:17:08;;;;;;;0.25;0.25;;;20.20;43.30;;;;;;5048888;28;20041;-46
2022/02/19 02:19:35;;;;;;;0.95;0.10;;;20.20;43.30;;;;;;5067325;28;20624;-47
2022/02/19 02:22:17;;;;;;;1.17;0.20;;;20.20;43.30;;;;;;5066627;28;20040;-47
2022/02/19 02:24:44;;;;;;;1.55;0.10;;;20.10;43.20;;;;;;5066549;28;20551;-52
2022/02/19 02:27:19;;;;;;;2.25;0.38;;;20.10;43.20;;;;;;5050915;28;20040;-50
2022/02/19 02:29:48;;;;;;;1.67;0.10;;;20.10;43.20;;;;;;5049003;28;20040;-49
2022/02/19 02:32:22;;;;;;;0.25;0.22;;;20.20;43.30;;;;;;5043462;28;20052;-49
2022/02/19 02:34:54;;;;;;;0.50;0.10;;;20.10;43.20;;;;;;5048715;28;20041;-47
2022/02/19 02:37:23;;;;;;;0.45;0.00;;;20.10;43.10;;;;;;5066821;28;20078;-48
2022/02/19 02:39:51;;;;;;;1.48;0.30;;;20.10;43.20;;;;;;5066985;28;20142;-48
2022/02/19 02:42:20;;;;;;;2.42;0.10;;;20.10;43.10;;;;;;5048622;28;20139;-51
2022/02/19 02:44:48;;;;;;;1.50;0.10;;;20.10;43.00;;;;;;5048068;28;20668;-46
2022/02/19 02:47:17;;;;;;;1.13;0.10;;;20.10;43.00;;;;;;5048530;28;20047;-50
2022/02/19 02:49:45;;;;;;;2.58;0.10;;;20.10;43.10;;;;;;5048687;28;20036;-50
2022/02/19 02:52:13;;;;;;;0.55;0.10;;;20.10;43.10;;;;;;5061622;28;20676;-46
2022/02/19 02:54:44;;;;;;;1.85;0.10;;;20.10;43.00;;;;;;5048886;28;20094;-49
2022/02/19 02:57:11;;;;;;;1.98;0.10;;;20.10;43.00;;;;;;5065837;28;20142;-49
2022/02/19 02:59:38;;;;;;;1.92;0.25;;;20.10;43.10;;;;;;5066634;28;20076;-49
2022/02/19 03:02:06;;;;;;;1.15;0.10;;;20.10;43.00;;;;;;5047926;28;20084;-48
2022/02/19 03:04:33;;;;;;;0.43;0.10;;;20.10;43.00;;;;;;5066603;28;20044;-47
2022/02/19 03:07:01;;;;;;;1.50;0.10;;;20.10;43.00;;;;;;5048613;28;20029;-50
2022/02/19 03:09:29;;;;;;;2.25;0.10;;;20.00;42.90;;;;;;5050159;28;20048;-48
2022/02/19 03:11:58;;;;;;;3.13;0.10;;;20.10;43.00;;;;;;5047788;28;20044;-51
2022/02/19 03:14:27;;;;;;;2.92;0.20;;;20.00;43.00;;;;;;5048150;28;20040;-48
2022/02/19 03:16:56;;;;;;;2.85;0.10;;;20.10;42.90;;;;;;5047987;28;20036;-50
2022/02/19 03:19:23;;;;;;;2.08;0.10;;;20.00;42.80;;;;;;5048612;28;20144;-48
2022/02/19 03:21:50;;;;;;;1.98;0.10;;;20.10;42.90;;;;;;5048234;28;20735;-48
2022/02/19 03:24:18;;;;;;;1.20;0.20;;;20.00;42.90;;;;;;5064613;28;20048;-47
2022/02/19 03:26:46;;;;;;;0.55;0.10;;;20.00;42.90;;;;;;5047693;28;20148;-49
2022/02/19 03:29:18;;;;;;;0.40;0.15;;;20.00;42.90;;;;;;5047466;28;20539;-48
2022/02/19 03:31:49;;;;;;;3.45;0.10;;;20.00;42.90;;;;;;5047427;28;20046;-49
2022/02/19 03:34:25;;;;;;;;;;;20.00;42.90;;;;;;5048044;28;20119;-52
2022/02/19 03:36:52;;;;;;;0.68;0.10;;;20.00;43.00;;;;;;5048038;28;20400;-48
2022/02/19 03:39:20;;;;;;;1.65;0.10;;;19.90;43.00;;;;;;5049797;28;20053;-47
2022/02/19 03:41:47;;;;;;;1.30;0.20;;;19.90;43.00;;;;;;5065300;28;20090;-49
2022/02/19 03:44:17;;;;;;;1.45;0.10;;;19.90;42.90;;;;;;5047432;28;20044;-47
2022/02/19 03:46:54;;;;;;;0.65;0.00;;;19.90;42.90;;;;;;5047484;28;20069;-50
2022/02/19 03:49:37;;;;;;;1.92;0.10;;;19.90;42.90;;;;;;5041342;28;20117;-50
2022/02/19 03:52:05;;;;;;;0.40;0.00;;;19.90;42.90;;;;;;5041434;28;20048;-49
2022/02/19 03:54:34;;;;;;;3.97;0.30;;;19.90;42.90;;;;;;5049386;28;20098;-49
2022/02/19 03:57:02;;;;;;;0.15;0.00;;;19.90;42.90;;;;;;5047881;28;20113;-50
2022/02/19 03:59:31;;;;;;;0.03;0.00;;;19.90;42.80;;;;;;5047057;28;20102;-50
2022/02/19 04:02:01;;;;;;;0.70;0.10;;;19.90;42.80;;;;;;5040538;28;20082;-49
2022/02/19 04:04:31;;;;;;;1.83;0.65;;;19.90;42.70;;;;;;5041639;28;20052;-52
2022/02/19 04:06:58;;;;;;;2.38;0.10;;;19.90;42.70;;;;;;5065429;28;20048;-50
2022/02/19 04:09:43;;;;;;;0.85;0.10;;;19.90;42.80;;;;;;5063039;28;20123;-46
2022/02/19 04:12:11;;;;;;;0.40;0.15;;;19.90;42.80;;;;;;5064535;28;20052;-53
2022/02/19 04:14:41;;;;;;;0.90;0.10;;;19.80;42.70;;;;;;5047094;28;20040;-48
2022/02/19 04:17:09;;;;;;;0.25;0.15;;;19.90;42.70;;;;;;5046913;28;20136;-48
2022/02/19 04:19:36;;;;;;;3.70;0.10;;;19.90;42.70;;;;;;5047085;28;20568;-54
2022/02/19 04:22:04;;;;;;;0.28;0.15;;;19.90;42.70;;;;;;5047303;28;20075;-53
2022/02/19 04:24:31;;;;;;;0.85;0.10;;;19.90;42.70;;;;;;5048787;28;20056;-51
2022/02/19 04:27:12;;;;;;;1.50;0.10;;;19.90;42.70;;;;;;5066021;28;20068;-49
2022/02/19 04:29:41;;;;;;;0.60;0.00;;;19.80;42.70;;;;;;5046263;28;20049;-51
2022/02/19 04:32:11;;;;;;;0.30;0.10;;;19.80;42.70;;;;;;5046939;28;20048;-49
2022/02/19 04:34:45;;;;;;;1.35;0.30;;;19.80;42.60;;;;;;5047038;28;20032;-48
2022/02/19 04:37:12;;;;;;;0.95;0.10;;;19.80;43.20;;;;;;5047481;28;20048;-46
2022/02/19 04:39:42;;;;;;;0.50;0.30;;;19.80;42.60;;;;;;5047749;28;20111;-52
2022/02/19 04:42:17;;;;;;;1.27;0.20;;;19.80;42.70;;;;;;5048154;28;20116;-47
2022/02/19 04:44:46;;;;;;;1.35;0.08;;;19.80;42.60;;;;;;5047007;28;20037;-49
2022/02/19 04:47:13;;;;;;;2.95;0.20;;;19.80;42.60;;;;;;5047041;28;20517;-46
2022/02/19 04:49:43;;;;;;;1.45;0.10;;;19.80;42.70;;;;;;5046920;28;20076;-46
2022/02/19 04:52:10;;;;;;;3.10;0.10;;;19.80;42.70;;;;;;5047045;28;20102;-51
2022/02/19 04:54:40;;;;;;;0.15;0.10;;;19.80;42.60;;;;;;5047769;28;20062;-48
2022/02/19 04:57:07;;;;;;;3.08;0.10;;;19.80;42.60;;;;;;5063977;28;20044;-48
2022/02/19 04:59:35;;;;;;;1.35;0.08;;;19.80;42.70;;;;;;5046438;28;20040;-48
2022/02/19 05:02:05;;;;;;;1.55;0.45;;;19.80;42.60;;;;;;5046709;28;20092;-49
2022/02/19 05:04:39;;;;;;;;;;;19.80;42.60;;;;;;5041899;28;20678;-48
2022/02/19 05:07:10;;;;;;;0.57;0.10;;;19.70;42.70;;;;;;5046990;28;19924;-51
2022/02/19 05:09:38;;;;;;;0.77;0.20;;;19.70;42.80;;;;;;5047751;28;20076;-49
2022/02/19 05:12:08;;;;;;;0.20;0.10;;;19.70;42.70;;;;;;5047630;28;20051;-51
2022/02/19 05:14:38;;;;;;;0.77;0.10;;;19.70;42.60;;;;;;5046807;28;20052;-47
2022/02/19 05:17:18;;;;;;;0.52;0.20;;;19.70;42.60;;;;;;5046641;28;20524;-49
2022/02/19 05:19:50;;;;;;;0.43;0.00;;;19.70;42.60;;;;;;5046829;28;20515;-47
2022/02/19 05:22:18;;;;;;;0.75;0.00;;;19.70;42.60;;;;;;5046701;28;20107;-50
2022/02/19 05:24:50;;;;;;;0.88;0.20;;;19.70;42.50;;;;;;5046695;28;20513;-46
2022/02/19 05:27:21;;;;;;;1.55;0.10;;;19.70;42.50;;;;;;5047260;28;20056;-47
2022/02/19 05:29:50;;;;;;;1.60;0.15;;;19.70;42.50;;;;;;5048075;28;20048;-52
2022/02/19 05:32:20;;;;;;;1.17;1.00;;;19.70;42.50;;;;;;5050127;28;20090;-51
2022/02/19 05:35:11;;;;;;;1.95;0.10;;;19.70;42.50;;;;;;5067898;28;20097;-49
2022/02/19 05:37:39;;;;;;;0.10;0.00;;;19.70;42.60;;;;;;5050400;28;20649;-47
2022/02/19 05:40:07;;;;;;;0.50;0.10;;;19.70;42.50;;;;;;5049826;28;20513;-46
2022/02/19 05:42:36;;;;;;;0.73;0.10;;;19.70;42.50;;;;;;5052089;28;20044;-48
2022/02/19 05:45:18;;;;;;;0.43;0.10;;;19.70;42.50;;;;;;5049595;28;20040;-46
2022/02/19 05:47:51;;;;;;;0.40;0.10;;;19.70;42.50;;;;;;5049498;28;20109;-50
2022/02/19 05:50:37;;;;;;;1.23;0.20;;;19.70;42.50;;;;;;5066897;28;20044;-45
2022/02/19 05:53:15;;;;;;;2.05;0.13;;;19.70;42.50;;;;;;5043870;28;20049;-45
2022/02/19 05:55:45;;;;;;;0.20;0.10;;;19.70;42.50;;;;;;5049422;28;20083;-49
2022/02/19 05:58:14;;;;;;;0.90;0.10;;;19.70;42.40;;;;;;5049773;28;20114;-47
2022/02/19 06:00:51;;;;;;;1.80;0.10;;;19.60;42.40;;;;;;5049527;28;20052;-51
2022/02/19 06:03:20;;;;;;;1.55;0.10;;;19.60;42.30;;;;;;5051213;28;20049;-50
2022/02/19 06:05:47;;;;;;;0.63;0.10;;;19.60;42.40;;;;;;5067195;28;20558;-50
2022/02/19 06:08:15;;;;;;;2.05;0.20;;;19.60;42.30;;;;;;5032868;28;20040;-47
2022/02/19 06:10:42;;;;;;;0.32;0.10;;;19.60;42.30;;;;;;5048934;28;20067;-46
2022/02/19 06:13:12;;;;;;;0.30;0.10;;;19.60;42.30;;;;;;5049750;28;20102;-49
2022/02/19 06:15:46;;;;;;;2.17;0.00;;;19.60;42.30;;;;;;5049521;28;20048;-48
2022/02/19 06:18:32;;;;;;;3.38;0.20;;;19.60;42.40;;;;;;5050804;28;20048;-48
2022/02/19 06:20:59;;;;;;;1.45;0.10;;;19.60;42.90;;;;;;5049743;28;20094;-46
2022/02/19 06:23:40;;;;;;;2.05;0.28;;;19.60;42.30;;;;;;5066981;28;20738;-48
2022/02/19 06:26:08;;;;;;;0.85;0.10;;;19.60;42.30;;;;;;5048685;28;20044;-46
2022/02/19 06:28:53;;;;;;;2.13;0.10;;;19.60;42.30;;;;;;5061900;28;20116;-49
2022/02/19 06:31:22;;;;;;;1.30;0.10;;;19.60;42.30;;;;;;5048893;28;20421;-46
2022/02/19 06:33:51;;;;;;;0.35;0.10;;;19.60;42.30;;;;;;5049700;28;20425;-47
2022/02/19 06:36:19;;;;;;;0.90;0.10;;;19.60;42.30;;;;;;5065470;28;20063;-51
2022/02/19 06:38:47;;;;;;;1.65;0.10;;;19.50;42.20;;;;;;5066384;28;20051;-44
2022/02/19 06:41:17;;;;;;;1.17;0.10;;;19.60;42.30;;;;;;5065814;28;20102;-50
2022/02/19 06:43:58;;;;;;;0.50;0.03;;;19.60;42.20;;;;;;5049066;28;20052;-47
2022/02/19 06:46:29;;;;;;;3.55;0.10;;;19.50;42.20;;;;;;5048592;28;20507;-48
2022/02/19 06:48:58;;;;;;;1.63;0.10;;;19.50;42.20;;;;;;5031786;28;20136;-46
2022/02/19 06:51:33;;;;;;;2.08;0.10;;;19.60;42.30;;;;;;5065569;28;20397;-53
2022/02/19 06:54:00;;;;;;;0.43;0.13;;;19.50;42.20;;;;;;5048058;28;20048;-46
2022/02/19 06:56:30;;;;;;;2.40;0.32;;;19.50;42.20;;;;;;5066137;28;20452;-52
2022/02/19 06:58:59;;;;;;;2.25;0.43;;;19.50;42.20;;;;;;5048649;28;20134;-47
2022/02/19 07:01:27;;;;;;;4.22;0.15;;;19.50;42.20;;;;;;5031493;28;20049;-49
2022/02/19 07:03:54;;;;;;;1.38;0.17;;;19.50;42.20;;;;;;5048316;28;20048;-46
2022/02/19 07:06:41;;;;;;;0.73;0.17;;;19.50;42.20;;;;;;5067329;28;20048;-50
2022/02/19 07:09:09;;;;;;;0.30;0.10;;;19.50;42.20;;;;;;5048815;28;20044;-50
2022/02/19 07:11:36;;;;;;;1.65;0.10;;;19.50;42.20;;;;;;5047265;28;20041;-50
2022/02/19 07:14:03;;;;;;;1.83;0.20;;;19.50;42.20;;;;;;5048288;28;20120;-49
2022/02/19 07:16:30;;;;;;;3.40;0.20;;;19.50;42.20;;;;;;5065767;28;20051;-48
2022/02/19 07:18:57;;;;;;;2.97;0.10;;;19.50;42.20;;;;;;5047928;28;20044;-49
2022/02/19 07:21:26;;;;;;;1.48;0.10;;;19.50;42.10;;;;;;5049861;28;20113;-50
2022/02/19 07:23:55;;;;;;;1.05;0.10;;;19.50;42.10;;;;;;5046950;28;20056;-53
2022/02/19 07:26:26;;;;;;;1.38;0.20;;;19.50;42.10;;;;;;5047624;28;20123;-48
2022/02/19 07:28:56;;;;;;;1.98;0.30;;;19.50;42.10;;;;;;5047612;28;20045;-51
2022/02/19 07:31:26;;;;;;;5.88;0.65;;;19.50;42.00;;;;;;5047273;28;20044;-50
2022/02/19 07:33:54;;;;;;;0.22;0.10;;;19.50;42.00;;;;;;5046617;28;20044;-51
2022/02/19 07:36:29;;;;;;;1.73;0.10;;;19.50;42.00;;;;;;5049245;28;20060;-50
2022/02/19 07:38:59;;;;;;;1.17;0.10;;;19.50;42.00;;;;;;5047902;28;20041;-52
2022/02/19 07:41:27;;;;;;;1.00;0.22;;;19.50;42.10;;;;;;5047656;28;20040;-49
2022/02/19 07:44:17;;;;;;;1.05;0.17;;;19.50;42.10;;;;;;4983779;28;20062;-47
2022/02/19 07:47:23;;;;;;;0.75;0.10;;;19.50;42.10;;;;;;4976819;28;20058;-51
2022/02/19 07:58:46;;;;;;;0.47;0.00;;;19.40;42.30;;;;;;4959033;28;20598;-49
2022/02/19 08:01:14;;;;;;;2.78;0.10;;;19.40;42.10;;;;;;4977292;28;20050;-50
2022/02/19 08:03:44;;;;;;;1.63;0.10;;;19.50;42.10;;;;;;4980125;28;20054;-51
2022/02/19 08:06:12;;;;;;;1.98;0.30;;;19.50;42.10;;;;;;4974658;28;20443;-46
2022/02/19 08:08:41;;;;;;;2.80;0.43;;;19.50;42.00;;;;;;4967785;28;20429;-50
2022/02/19 08:11:23;;;;;;;0.63;0.20;;;19.50;42.00;;;;;;4971672;28;20408;-52
2022/02/19 08:13:50;;;;;;;0.90;0.10;;;19.50;42.00;;;;;;4970746;28;20069;-51
2022/02/19 08:16:17;;;;;;;0.45;0.30;;;19.50;42.00;;;;;;4965342;28;20039;-48
2022/02/19 08:18:47;;;;;;;1.48;0.10;;;19.50;41.90;;;;;;4977957;28;20042;-51
2022/02/19 08:21:14;;;;;;;0.82;0.10;;;19.50;42.00;;;;;;5014037;28;20061;-51
2022/02/19 08:23:41;;;;;;;1.55;0.10;;;19.50;42.00;;;;;;5064677;28;20412;-52
2022/02/19 08:26:08;;;;;;;0.60;0.10;;;19.50;41.90;;;;;;5064669;28;20428;-49
2022/02/19 08:28:37;;;;;;;0.43;0.43;;;19.60;41.90;;;;;;5064996;28;20039;-50
2022/02/19 08:31:04;;;;;;;3.17;0.08;;;19.60;41.90;;;;;;5064978;28;20032;-47
2022/02/19 08:33:31;;;;;;;1.40;0.05;;;19.60;41.80;;;;;;5066572;28;20094;-49
2022/02/19 08:35:59;;;;;;;1.25;0.38;;;19.50;41.80;;;;;;5064706;28;20513;-51
2022/02/19 08:38:26;;;;;;;0.45;0.00;;;19.50;41.80;;;;;;5064656;28;20044;-49
2022/02/19 08:40:53;;;;;;;1.73;0.10;;;19.50;41.70;;;;;;5064490;28;20041;-49
2022/02/19 08:43:20;;;;;;;0.98;0.10;;;19.50;41.70;;;;;;5065161;28;20084;-53
2022/02/19 08:45:49;;;;;;;0.35;0.10;;;19.60;41.60;;;;;;5065294;28;20045;-51
2022/02/19 08:48:16;;;;;;;2.83;0.17;;;19.60;41.70;;;;;;5048167;28;20037;-51
2022/02/19 08:50:43;;;;;;;0.50;0.10;;;19.60;41.70;;;;;;5062931;28;20117;-49
2022/02/19 08:53:11;;;;;;;1.15;0.40;;;19.60;41.60;;;;;;5061732;28;20423;-49
2022/02/19 08:55:39;;;;;;;0.65;0.10;;;19.60;41.60;;;;;;5063727;28;20040;-51
2022/02/19 08:58:06;;;;;;;0.63;0.10;;;19.60;41.50;;;;;;5061529;28;20059;-49
2022/02/19 09:00:33;;;;;;;0.40;0.20;;;19.60;41.60;;;;;;5066313;28;20091;-48
2022/02/19 09:03:02;;;;;;;4.07;0.20;;;19.60;41.60;;;;;;5064229;28;20055;-50
2022/02/19 09:05:29;;;;;;;0.22;0.20;;;19.70;41.70;;;;;;5049338;28;20052;-51
2022/02/19 09:07:56;;;;;;;2.80;0.10;;;19.60;41.60;;;;;;5067841;28;20036;-51
2022/02/19 09:10:23;;;;;;;1.50;0.38;;;19.70;41.60;;;;;;5068463;28;20040;-46
2022/02/19 09:12:50;;;;;;;0.75;0.28;;;19.70;41.60;;;;;;5068669;28;20044;-47
2022/02/19 09:15:20;;;;;;;0.77;0.10;;;19.70;41.60;;;;;;5069947;28;20079;-49
2022/02/19 09:17:47;;;;;;;2.30;0.32;;;19.70;41.50;;;;;;5067867;28;20041;-48
2022/02/19 09:20:17;;;;;;;2.50;0.20;;;19.70;41.50;;;;;;5068021;28;20048;-49
2022/02/19 09:22:44;;;;;;;1.75;0.45;;;19.70;41.40;;;;;;5067964;28;20578;-51
2022/02/19 09:25:12;;;;;;;0.10;0.00;;;19.70;41.40;;;;;;5068220;28;20044;-48
2022/02/19 09:27:39;;;;;;;0.82;0.10;;;19.70;41.40;;;;;;5069480;28;20467;-51
2022/02/19 09:30:08;;;;;;;1.75;0.25;;;19.70;41.40;;;;;;5049797;28;20051;-51
2022/02/19 09:32:35;;;;;;;0.70;0.10;;;19.80;41.40;;;;;;5067464;28;20405;-52
2022/02/19 09:35:04;;;;;;;0.50;0.43;;;19.80;41.40;;;;;;5063879;28;20043;-53
2022/02/19 09:37:33;;;;;;;0.30;0.10;;;19.80;41.40;;;;;;5068079;28;20115;-53
2022/02/19 09:40:01;;;;;;;3.05;0.40;;;19.80;41.40;;;;;;5067776;28;20036;-52
2022/02/19 09:42:28;;;;;;;0.85;0.30;;;19.80;41.30;;;;;;5069641;28;20067;-49
2022/02/19 09:44:56;;;;;;;2.33;0.10;;;19.80;41.40;;;;;;5067764;28;20137;-48
2022/02/19 09:47:26;;;;;;;1.77;0.30;;;19.80;41.30;;;;;;5067593;28;20560;-56
2022/02/19 09:49:53;;;;;;;3.55;0.10;;;19.80;41.30;;;;;;5067762;28;20453;-47
2022/02/19 09:52:21;;;;;;;2.20;0.20;;;19.80;41.30;;;;;;5044096;28;20115;-47
2022/02/19 09:54:49;;;;;;;0.65;0.13;;;19.90;41.30;;;;;;5049974;28;20040;-50
2022/02/19 09:57:16;;;;;;;0.63;0.20;;;19.90;41.20;;;;;;5069076;28;20123;-49
2022/02/19 09:59:43;;;;;;;0.95;0.10;;;19.90;41.20;;;;;;5067500;28;20699;-54
2022/02/19 10:02:10;;;;;;;0.68;0.10;;;19.90;41.20;;;;;;5067050;28;20052;-48
2022/02/19 10:04:43;;;;;;;0.73;0.10;;;19.90;41.10;;;;;;5067462;28;20044;-50
2022/02/19 10:07:15;;;;;;;1.88;0.43;;;19.90;41.10;;;;;;5063637;28;20440;-50
2022/02/19 10:09:43;;;;;;;2.33;0.20;;;19.90;41.10;;;;;;5068607;28;20044;-53
2022/02/19 10:12:13;;;;;;;0.43;0.10;;;19.90;41.10;;;;;;5068662;28;20037;-48
2022/02/19 10:14:42;;;;;;;3.00;0.88;;;20.00;41.10;;;;;;5067550;28;20132;-51
2022/02/19 10:17:15;;;;;;;1.67;0.15;;;20.00;41.70;;;;;;5065987;28;20048;-49
2022/02/19 10:20:05;;;;;;;1.63;0.47;;;20.00;41.00;;;;;;5067273;28;20544;-52
2022/02/19 10:22:34;;;;;;;0.40;0.10;;;20.00;41.00;;;;;;5060912;28;20098;-46
2022/02/19 10:25:04;;;;;;;2.38;0.10;;;20.00;41.00;;;;;;5067121;28;20175;-50
2022/02/19 10:27:47;;;;;;;0.70;0.43;;;20.00;41.00;;;;;;5068486;28;20048;-47
2022/02/19 10:30:16;;;;;;;0.68;0.10;;;20.10;41.00;;;;;;5049790;28;20047;-47
2022/02/19 10:32:52;;;;;;;1.10;0.10;;;20.10;40.90;;;;;;5066960;28;20050;-48
2022/02/19 10:35:20;;;;;;;3.60;0.70;;;20.10;40.90;;;;;;5066774;28;20056;-47
2022/02/19 10:37:49;;;;;;;0.95;0.30;;;20.10;40.90;;;;;;5066692;28;20032;-49
2022/02/19 10:40:32;;;;;;;1.63;0.10;;;20.10;40.80;;;;;;5067072;28;20256;-48
2022/02/19 10:43:04;;;;;;;1.40;0.10;;;20.20;40.80;;;;;;5048721;28;20101;-51
2022/02/19 10:45:32;;;;;;;1.05;0.10;;;20.20;40.80;;;;;;5068217;28;20128;-47
2022/02/19 10:48:16;;;;;;;1.02;0.20;;;20.20;40.70;;;;;;5066514;28;20132;-46
2022/02/19 10:50:44;;;;;;;2.35;0.25;;;20.20;40.60;;;;;;5065921;28;20046;-47
2022/02/19 10:53:24;;;;;;;1.83;0.10;;;20.20;40.60;;;;;;5066567;28;20047;-50
2022/02/19 10:55:51;;;;;;;0.38;0.10;;;20.30;40.50;;;;;;5066746;28;20809;-47
2022/02/19 10:58:20;;;;;;;2.10;0.15;;;20.30;40.50;;;;;;5066305;28;20040;-52
2022/02/19 11:00:47;;;;;;;2.20;0.22;;;20.30;40.40;;;;;;5066281;28;20504;-47
2022/02/19 11:03:16;;;;;;;1.40;0.10;;;20.30;40.30;;;;;;5068141;28;21089;-50
2022/02/19 11:05:44;;;;;;;1.20;0.25;;;20.40;40.30;;;;;;5066289;28;20540;-49
2022/02/19 11:08:11;;;;;;;1.15;0.17;;;20.40;40.30;;;;;;5066316;28;20044;-52
2022/02/19 11:10:38;;;;;;;1.65;0.32;;;20.40;40.20;;;;;;5066467;28;20592;-54
2022/02/19 11:13:06;;;;;;;1.65;0.68;;;20.40;40.20;;;;;;5066402;28;20079;-53
2022/02/19 11:15:35;;;;;;;1.77;0.30;;;20.50;40.20;;;;;;5067969;28;20441;-52
2022/02/19 11:18:07;;;;;;;1.65;0.60;;;20.50;40.10;;;;;;5066268;28;20033;-50
2022/02/19 11:20:34;;;;;;;1.40;0.50;;;20.60;40.00;;;;;;5066489;28;20048;-48
2022/02/19 11:23:03;;;;;;;2.35;0.35;;;20.60;40.00;;;;;;5065931;28;20033;-51
2022/02/19 11:25:32;;;;;;;8.30;0.75;;;20.60;39.90;;;;;;5066352;28;20063;-52
2022/02/19 11:28:03;;;;;;;2.35;0.40;;;20.70;39.90;;;;;;5066081;28;20527;-50
2022/02/19 11:30:33;;;;;;;3.17;1.25;;;20.80;39.90;;;;;;5067456;28;20033;-50
2022/02/19 11:33:02;;;;;;;2.40;0.70;;;20.80;39.90;;;;;;5065080;28;20432;-47
2022/02/19 11:35:38;;;;;;;2.08;0.40;;;20.80;39.80;;;;;;5065901;28;20131;-50
2022/02/19 11:38:25;;;;;;;2.40;0.63;;;20.90;39.80;;;;;;5065882;28;20051;-49
2022/02/19 11:40:54;;;;;;;3.35;0.30;;;20.90;39.70;;;;;;5060099;28;20032;-50
2022/02/19 11:43:39;;;;;;;5.50;0.85;;;21.00;39.80;;;;;;5047615;28;20124;-53
2022/02/19 11:46:11;;;;;;;2.15;0.65;;;21.00;39.70;;;;;;5065993;28;20064;-53
2022/02/19 11:48:41;;;;;;;3.15;0.45;;;21.10;39.70;;;;;;5065129;28;20055;-47
2022/02/19 11:51:15;;;;;;;2.50;1.20;;;21.20;39.70;;;;;;5065382;28;20128;-53
2022/02/19 11:53:44;;;;;;;3.75;0.68;;;21.20;39.60;;;;;;5065715;28;20047;-50
2022/02/19 11:56:25;;;;;;;3.15;0.80;;;21.20;39.60;;;;;;5065690;28;20432;-46
2022/02/19 11:58:53;;;;;;;2.88;0.52;;;21.30;39.50;;;;;;5065317;28;20047;-48
2022/02/19 12:01:20;;;;;;;5.00;0.50;;;21.40;39.50;;;;;;5065932;28;20574;-49
2022/02/19 12:03:49;;;;;;;1.70;0.85;;;21.40;39.40;;;;;;5065848;28;20048;-52
2022/02/19 12:06:22;;;;;;;4.05;0.90;;;21.50;39.40;;;;;;5066813;28;20535;-48
2022/02/19 12:09:08;;;;;;;4.38;1.13;;;21.60;39.30;;;;;;5063524;28;20056;-52
2022/02/19 12:12:04;;;;;;;2.50;0.40;;;21.70;39.30;;;;;;5065504;28;20113;-50
2022/02/19 12:14:58;;;;;;;3.58;1.10;;;21.70;39.10;;;;;;4964242;28;20051;-49
2022/02/19 12:17:54;;;;;;;4.68;0.68;;;21.80;39.10;;;;;;4963855;28;20067;-48
2022/02/19 12:20:28;;;;;;;3.30;1.20;;;21.80;39.10;;;;;;4963971;28;20107;-48
2022/02/19 12:22:58;;;;;;;2.95;1.00;;;21.90;39.00;;;;;;4963950;28;20050;-48
2022/02/19 12:25:45;;;;;;;4.47;1.08;;;21.90;39.00;;;;;;4963946;28;20055;-49
2022/02/19 12:28:17;;;;;;;6.80;1.70;;;22.00;38.90;;;;;;4960833;28;20070;-52
2022/02/19 12:30:45;;;;;;;3.78;1.35;;;22.10;38.90;;;;;;4964596;28;20049;-50
2022/02/19 12:33:12;;;;;;;4.47;0.88;;;22.10;38.80;;;;;;4965626;28;20555;-47
2022/02/19 12:35:43;;;;;;;4.50;1.20;;;22.20;38.70;;;;;;4947639;28;20051;-49
2022/02/19 12:38:13;;;;;;;3.20;1.23;;;22.20;38.60;;;;;;4964064;28;20047;-49
2022/02/19 12:40:41;;;;;;;2.13;0.93;;;22.30;38.60;;;;;;4966992;28;20051;-50
2022/02/19 12:43:14;;;;;;;3.75;0.77;;;22.30;38.50;;;;;;4967771;28;20129;-51
2022/02/19 12:45:42;;;;;;;2.67;1.13;;;22.40;38.50;;;;;;4968558;28;20054;-49
2022/02/19 12:48:09;;;;;;;2.60;0.35;;;22.50;38.40;;;;;;4968633;28;20142;-46
2022/02/19 12:50:36;;;;;;;3.08;0.80;;;22.50;38.30;;;;;;5029859;28;20052;-50
2022/02/19 12:53:05;;;;;;;4.50;1.08;;;22.50;38.20;;;;;;5049603;28;20814;-51
2022/02/19 12:55:32;;;;;;;3.80;0.68;;;22.60;38.20;;;;;;5068850;28;20062;-48
2022/02/19 12:58:03;;;;;;;1.95;0.73;;;22.60;38.10;;;;;;5068880;28;20050;-51
2022/02/19 13:00:31;;;;;;;3.95;1.15;;;22.70;38.00;;;;;;5070540;28;20087;-48
2022/02/19 13:03:00;;;;;;;2.80;0.57;;;22.70;37.90;;;;;;5068747;28;20122;-51
2022/02/19 13:05:27;;;;;;;2.28;0.43;;;22.80;37.90;;;;;;5068634;28;20056;-48
2022/02/19 13:07:56;;;;;;;3.70;1.25;;;22.80;37.80;;;;;;5068971;28;20036;-45
2022/02/19 13:10:24;;;;;;;2.58;0.77;;;22.90;37.80;;;;;;5050182;28;20036;-48
2022/02/19 13:12:51;;;;;;;2.10;0.57;;;23.00;37.80;;;;;;5068755;28;20127;-50